Time;durP1;ratioP1;P1;durP2;ratioP2;P2;SDS_P1;SDS_P2;PMS_P1;PMS_P2;Temp;Humidity;BMP_temperature;BMP_pressure;BME280_temperature;BME280_humidity;BME280_pressure;Samples;Min_cycle;Max_cycle;Signal;HPM_P1;HPM_P2
2023/07/11 00:02:25;;;;;;;3.03;1.88;;;21.10;93.50;;;;;;4970606;28;20030;-82
2023/07/11 00:04:51;;;;;;;4.43;2.40;;;21.00;92.70;;;;;;4970694;28;20037;-82
2023/07/11 00:07:17;;;;;;;4.85;2.10;;;21.00;92.30;;;;;;4988043;28;20111;-82
2023/07/11 00:09:49;;;;;;;5.32;2.28;;;21.00;92.50;;;;;;4971049;28;20064;-82
2023/07/11 00:12:16;;;;;;;3.50;1.67;;;20.90;92.20;;;;;;4970763;28;20034;-82
2023/07/11 00:14:43;;;;;;;3.75;1.98;;;20.90;92.30;;;;;;4970387;28;20031;-82
2023/07/11 00:17:09;;;;;;;6.70;2.95;;;20.90;92.30;;;;;;4970130;28;20041;-80
2023/07/11 00:19:53;;;;;;;6.50;2.83;;;21.00;92.50;;;;;;4987857;28;20030;-82
2023/07/11 00:22:19;;;;;;;4.07;2.10;;;21.10;91.50;;;;;;4987760;28;20038;-82
2023/07/11 00:24:46;;;;;;;3.08;2.15;;;21.10;90.90;;;;;;4970217;28;20045;-82
2023/07/11 00:27:15;;;;;;;3.65;2.05;;;21.20;90.70;;;;;;4987923;28;20051;-82
2023/07/11 00:29:41;;;;;;;7.68;2.40;;;21.20;90.30;;;;;;4970483;28;20088;-81
2023/07/11 00:32:08;;;;;;;4.78;2.08;;;21.30;90.20;;;;;;4987365;28;20499;-81
2023/07/11 00:34:33;;;;;;;4.75;2.78;;;21.30;90.40;;;;;;4987456;28;20517;-81
2023/07/11 00:36:59;;;;;;;7.25;2.17;;;21.30;90.50;;;;;;4970422;28;20026;-81
2023/07/11 00:39:27;;;;;;;7.63;2.40;;;21.30;90.60;;;;;;4987330;28;20759;-81
2023/07/11 00:41:53;;;;;;;5.53;2.50;;;21.30;90.60;;;;;;4969890;28;20379;-80
2023/07/11 00:44:21;;;;;;;4.03;2.30;;;21.40;90.80;;;;;;4969826;28;20031;-82
2023/07/11 00:46:47;;;;;;;4.05;2.55;;;21.40;91.00;;;;;;4970212;28;20079;-82
2023/07/11 00:49:16;;;;;;;4.78;2.47;;;21.40;91.10;;;;;;4969994;28;20030;-82
2023/07/11 00:52:02;;;;;;;7.20;3.15;;;21.40;90.80;;;;;;4969915;28;20072;-79
2023/07/11 00:54:32;;;;;;;6.28;2.47;;;21.40;91.00;;;;;;4969581;28;20029;-82
2023/07/11 00:57:02;;;;;;;5.40;2.40;;;21.40;91.30;;;;;;4987346;28;20066;-82
2023/07/11 00:59:29;;;;;;;5.60;2.70;;;21.40;91.60;;;;;;4969353;28;20026;-81
2023/07/11 01:02:07;;;;;;;5.32;2.47;;;21.30;92.30;;;;;;4970192;28;20022;-82
2023/07/11 01:04:34;;;;;;;7.90;3.30;;;21.30;92.80;;;;;;4987374;28;20030;-82
2023/07/11 01:06:59;;;;;;;3.55;2.30;;;21.30;92.80;;;;;;4987545;28;20081;-82
2023/07/11 01:09:26;;;;;;;3.30;2.03;;;21.20;93.00;;;;;;4987385;28;20054;-82
2023/07/11 01:11:54;;;;;;;4.07;2.10;;;21.20;94.10;;;;;;4969723;28;20494;-81
2023/07/11 01:14:19;;;;;;;3.63;2.10;;;21.20;94.20;;;;;;4986804;28;20015;-80
2023/07/11 01:16:46;;;;;;;3.45;2.53;;;21.20;94.10;;;;;;4969671;28;20091;-81
2023/07/11 01:19:11;;;;;;;5.25;2.30;;;21.20;94.20;;;;;;4969730;28;20499;-81
2023/07/11 01:21:38;;;;;;;5.78;2.08;;;21.30;94.40;;;;;;4969345;28;20027;-80
2023/07/11 01:24:04;;;;;;;3.75;2.50;;;21.40;94.00;;;;;;4969477;28;20403;-81
2023/07/11 01:26:30;;;;;;;3.33;2.20;;;21.40;93.60;;;;;;4969666;28;20110;-82
2023/07/11 01:28:56;;;;;;;4.38;2.83;;;21.60;93.00;;;;;;4969540;28;20565;-82
2023/07/11 01:31:21;;;;;;;6.85;2.53;;;21.60;92.80;;;;;;4987040;28;20026;-82
2023/07/11 01:33:47;;;;;;;5.45;2.80;;;21.70;92.60;;;;;;4969307;28;20031;-81
2023/07/11 01:36:13;;;;;;;4.50;2.53;;;21.70;92.50;;;;;;4969236;28;20044;-81
2023/07/11 01:38:39;;;;;;;5.03;2.15;;;21.80;92.10;;;;;;4969214;28;20807;-81
2023/07/11 01:41:05;;;;;;;4.22;2.33;;;21.80;91.80;;;;;;4969392;28;20570;-83
2023/07/11 01:43:31;;;;;;;3.70;2.17;;;21.90;91.60;;;;;;4970453;28;20060;-83
2023/07/11 01:45:57;;;;;;;8.05;2.47;;;21.90;91.40;;;;;;4969805;28;20045;-83
2023/07/11 01:48:22;;;;;;;4.95;2.45;;;21.90;91.10;;;;;;4969325;28;20112;-83
2023/07/11 01:50:48;;;;;;;7.45;2.85;;;21.90;91.20;;;;;;4969264;28;20069;-81
2023/07/11 01:53:13;;;;;;;4.25;2.35;;;21.90;91.40;;;;;;4969110;28;20093;-81
2023/07/11 01:55:39;;;;;;;4.05;2.50;;;21.90;91.30;;;;;;4969288;28;20030;-81
2023/07/11 01:58:05;;;;;;;9.77;2.88;;;21.90;91.30;;;;;;4969091;28;20049;-81
2023/07/11 02:00:31;;;;;;;7.55;2.80;;;21.90;91.70;;;;;;4986461;28;20026;-79
2023/07/11 02:02:56;;;;;;;9.30;2.70;;;21.80;92.20;;;;;;4986417;28;20031;-82
2023/07/11 02:05:23;;;;;;;8.57;2.45;;;21.70;92.70;;;;;;4968832;28;20380;-81
2023/07/11 02:07:49;;;;;;;5.63;2.67;;;21.70;93.00;;;;;;4986745;28;20027;-81
2023/07/11 02:10:15;;;;;;;5.50;2.83;;;21.60;93.40;;;;;;4969455;28;20502;-81
2023/07/11 02:12:40;;;;;;;4.65;2.75;;;21.50;93.90;;;;;;4972393;28;20406;-82
2023/07/11 02:15:06;;;;;;;5.43;3.08;;;21.40;94.40;;;;;;4973522;28;20030;-82
2023/07/11 02:17:34;;;;;;;5.53;3.15;;;21.40;95.30;;;;;;4972506;28;20619;-82
2023/07/11 02:19:59;;;;;;;6.55;2.90;;;21.30;95.80;;;;;;4972526;28;20023;-82
2023/07/11 02:22:25;;;;;;;6.82;2.45;;;21.20;96.60;;;;;;4972033;28;20027;-82
2023/07/11 02:24:50;;;;;;;5.63;2.88;;;21.10;96.80;;;;;;4972193;28;20118;-83
2023/07/11 02:27:16;;;;;;;10.73;2.90;;;21.10;97.00;;;;;;4972078;28;20125;-81
2023/07/11 02:29:42;;;;;;;5.10;2.67;;;21.10;97.50;;;;;;4972201;28;20023;-82
2023/07/11 02:32:08;;;;;;;4.57;2.88;;;21.00;98.30;;;;;;4971911;28;20707;-82
2023/07/11 02:34:33;;;;;;;3.70;2.28;;;21.00;98.60;;;;;;4972295;28;20033;-82
2023/07/11 02:36:59;;;;;;;3.28;2.50;;;20.90;99.20;;;;;;4989878;28;20395;-82
2023/07/11 02:39:25;;;;;;;4.57;2.55;;;20.90;99.60;;;;;;4971752;28;20427;-81
2023/07/11 02:41:50;;;;;;;4.95;2.38;;;20.90;99.90;;;;;;4989415;28;20030;-82
2023/07/11 02:44:16;;;;;;;7.28;2.38;;;20.90;99.90;;;;;;4989140;28;20034;-82
2023/07/11 02:46:41;;;;;;;5.55;2.90;;;20.80;99.90;;;;;;4971915;28;20040;-83
2023/07/11 02:49:08;;;;;;;4.85;2.85;;;20.80;99.90;;;;;;5056890;28;20038;-83
2023/07/11 02:51:35;;;;;;;5.18;2.65;;;20.80;99.90;;;;;;4971923;28;20045;-81
2023/07/11 02:54:02;;;;;;;4.65;2.78;;;20.70;99.90;;;;;;4971790;28;20030;-82
2023/07/11 02:56:27;;;;;;;3.55;2.42;;;20.70;99.90;;;;;;4971707;28;20054;-82
2023/07/11 02:58:53;;;;;;;9.85;3.05;;;20.70;99.90;;;;;;4971904;28;20058;-82
2023/07/11 03:01:19;;;;;;;4.28;2.65;;;20.70;99.90;;;;;;4971761;28;20026;-82
2023/07/11 03:03:45;;;;;;;12.20;3.40;;;20.70;99.90;;;;;;4971676;28;20483;-82
2023/07/11 03:06:11;;;;;;;6.60;3.55;;;20.70;99.90;;;;;;4971580;28;20038;-82
2023/07/11 03:08:37;;;;;;;6.30;2.90;;;20.70;99.90;;;;;;4971573;28;20018;-82
2023/07/11 03:11:03;;;;;;;10.50;2.67;;;20.60;99.90;;;;;;4972065;28;20081;-81
2023/07/11 03:13:29;;;;;;;3.92;2.15;;;20.70;99.90;;;;;;4971545;28;20030;-82
2023/07/11 03:15:54;;;;;;;8.70;3.05;;;20.70;99.90;;;;;;4971393;28;20037;-81
2023/07/11 03:18:20;;;;;;;6.78;3.03;;;20.80;99.90;;;;;;4971402;28;20022;-82
2023/07/11 03:20:46;;;;;;;10.90;2.78;;;20.80;99.90;;;;;;4988902;28;20143;-82
2023/07/11 03:23:14;;;;;;;5.00;2.90;;;20.80;99.90;;;;;;4972428;28;20521;-82
2023/07/11 03:25:40;;;;;;;7.15;2.67;;;20.90;99.90;;;;;;4974340;28;20042;-82
2023/07/11 03:28:07;;;;;;;13.88;2.53;;;20.90;99.90;;;;;;4990653;28;20023;-81
2023/07/11 03:30:36;;;;;;;3.85;2.50;;;21.00;99.90;;;;;;4989340;28;20034;-81
2023/07/11 03:33:02;;;;;;;6.40;3.17;;;21.00;99.90;;;;;;4971292;28;20019;-81
2023/07/11 03:35:28;;;;;;;6.38;2.90;;;21.00;99.90;;;;;;4971433;28;20030;-81
2023/07/11 03:37:53;;;;;;;5.60;3.00;;;21.00;99.90;;;;;;4971215;28;20054;-80
2023/07/11 03:40:19;;;;;;;8.40;3.20;;;21.00;99.90;;;;;;4970900;28;20037;-82
2023/07/11 03:42:45;;;;;;;7.40;2.80;;;21.00;99.90;;;;;;4988229;28;20077;-81
2023/07/11 03:45:10;;;;;;;6.32;3.33;;;21.00;99.90;;;;;;4988233;28;20042;-81
2023/07/11 03:47:36;;;;;;;5.43;3.42;;;21.10;99.90;;;;;;4971040;28;20048;-82
2023/07/11 03:50:02;;;;;;;6.43;3.42;;;21.10;99.90;;;;;;4988219;28;20076;-81
2023/07/11 03:52:27;;;;;;;5.50;2.97;;;21.10;99.90;;;;;;4970572;28;20041;-82
2023/07/11 03:54:53;;;;;;;9.00;3.85;;;21.20;99.90;;;;;;4988064;28;20062;-80
2023/07/11 03:57:19;;;;;;;9.32;4.13;;;21.30;99.90;;;;;;4988094;28;20112;-81
2023/07/11 03:59:45;;;;;;;7.05;3.78;;;21.30;99.90;;;;;;4988225;28;20483;-82
2023/07/11 04:02:11;;;;;;;5.97;2.80;;;21.30;99.90;;;;;;4970604;28;20433;-82
2023/07/11 04:04:36;;;;;;;7.20;3.08;;;21.40;99.90;;;;;;4970477;28;20030;-81
2023/07/11 04:07:03;;;;;;;7.20;2.83;;;21.40;99.90;;;;;;4970333;28;20026;-82
2023/07/11 04:09:29;;;;;;;6.20;3.13;;;21.50;99.90;;;;;;4970259;28;20493;-82
2023/07/11 04:11:55;;;;;;;7.65;3.30;;;21.60;99.90;;;;;;4970422;28;20041;-82
2023/07/11 04:14:21;;;;;;;4.88;2.70;;;21.70;99.90;;;;;;4970592;28;20039;-80
2023/07/11 04:16:46;;;;;;;5.18;3.30;;;21.90;99.90;;;;;;4970277;28;20505;-82
2023/07/11 04:19:12;;;;;;;4.45;2.92;;;22.00;99.90;;;;;;4970902;28;20038;-81
2023/07/11 04:21:38;;;;;;;8.25;3.53;;;22.00;99.90;;;;;;4971602;28;20411;-83
2023/07/11 04:24:04;;;;;;;6.20;3.65;;;22.10;99.90;;;;;;4971406;28;20062;-84
2023/07/11 04:26:29;;;;;;;8.07;3.00;;;22.20;99.90;;;;;;4988696;28;20034;-84
2023/07/11 04:28:55;;;;;;;6.03;3.28;;;22.30;99.90;;;;;;4988547;28;20065;-84
2023/07/11 04:31:21;;;;;;;11.38;3.65;;;22.40;99.90;;;;;;4971187;28;20073;-83
2023/07/11 04:33:47;;;;;;;8.45;3.28;;;22.40;99.80;;;;;;4970144;28;20071;-84
2023/07/11 04:36:14;;;;;;;6.03;2.67;;;22.50;99.20;;;;;;4988230;28;20057;-81
2023/07/11 04:38:42;;;;;;;6.53;3.35;;;22.60;98.10;;;;;;4970783;28;20523;-84
2023/07/11 04:41:11;;;;;;;7.85;3.63;;;22.80;97.10;;;;;;4988160;28;20022;-83
2023/07/11 04:43:37;;;;;;;10.45;3.20;;;23.00;97.40;;;;;;4970714;28;20038;-83
2023/07/11 04:46:04;;;;;;;4.68;2.80;;;23.30;97.30;;;;;;4969753;28;20034;-83
2023/07/11 04:48:31;;;;;;;7.47;3.72;;;23.40;96.30;;;;;;4969799;28;20045;-81
2023/07/11 04:51:05;;;;;;;5.35;3.30;;;23.60;95.70;;;;;;4970865;28;20121;-81
2023/07/11 04:53:32;;;;;;;6.82;3.10;;;23.90;94.10;;;;;;4970677;28;20107;-82
2023/07/11 04:56:17;;;;;;;6.45;3.00;;;24.00;92.70;;;;;;4988192;28;20088;-81
2023/07/11 04:58:43;;;;;;;8.52;3.60;;;24.10;92.40;;;;;;4970789;28;20030;-81
2023/07/11 05:01:11;;;;;;;7.95;2.65;;;24.20;94.00;;;;;;4988263;28;20395;-81
2023/07/11 05:03:37;;;;;;;14.82;3.50;;;24.10;94.00;;;;;;4970381;28;20023;-80
2023/07/11 05:06:04;;;;;;;5.28;2.95;;;24.20;93.70;;;;;;4970537;28;20042;-81
2023/07/11 05:08:30;;;;;;;10.18;3.30;;;24.10;94.50;;;;;;4970475;28;20113;-82
2023/07/11 05:11:05;;;;;;;8.88;3.50;;;24.20;93.90;;;;;;4970330;28;20183;-83
2023/07/11 05:13:32;;;;;;;7.43;3.75;;;24.30;94.20;;;;;;4970299;28;20502;-82
2023/07/11 05:16:00;;;;;;;8.18;3.90;;;24.30;93.90;;;;;;4970110;28;20022;-82
2023/07/11 05:18:25;;;;;;;9.40;3.83;;;24.40;93.80;;;;;;4969966;28;20038;-83
2023/07/11 05:20:55;;;;;;;7.05;3.05;;;24.60;92.90;;;;;;4970099;28;20034;-83
2023/07/11 05:23:27;;;;;;;7.53;3.20;;;24.90;91.80;;;;;;4970261;28;20022;-82
2023/07/11 05:25:54;;;;;;;8.30;3.22;;;25.10;91.00;;;;;;4987700;28;20081;-83
2023/07/11 05:28:20;;;;;;;6.80;2.97;;;25.40;90.50;;;;;;4970037;28;20038;-82
2023/07/11 05:30:46;;;;;;;7.55;4.03;;;25.50;90.80;;;;;;4969762;28;20037;-81
2023/07/11 05:33:12;;;;;;;7.07;3.85;;;25.70;90.90;;;;;;4969944;28;20034;-83
2023/07/11 05:35:45;;;;;;;9.68;3.22;;;25.80;90.40;;;;;;4969710;28;20516;-81
2023/07/11 05:38:11;;;;;;;7.00;3.20;;;25.90;88.30;;;;;;4957331;28;20058;-82
2023/07/11 05:40:41;;;;;;;5.32;2.88;;;26.10;88.10;;;;;;4947206;28;20035;-81
2023/07/11 05:43:06;;;;;;;7.93;3.92;;;26.20;86.00;;;;;;4947079;29;20042;-81
2023/07/11 05:45:32;;;;;;;8.05;3.20;;;26.40;81.80;;;;;;4949474;28;20043;-82
2023/07/11 05:47:59;;;;;;;5.70;2.85;;;26.40;80.60;;;;;;4950607;28;20054;-82
2023/07/11 05:50:26;;;;;;;6.32;2.88;;;26.50;78.90;;;;;;4950512;28;20613;-82
2023/07/11 05:52:52;;;;;;;6.75;3.63;;;26.80;76.30;;;;;;4952084;28;20028;-82
2023/07/11 05:55:18;;;;;;;6.05;3.20;;;27.10;74.50;;;;;;4952443;28;20034;-82
2023/07/11 05:57:43;;;;;;;5.63;3.28;;;27.30;73.40;;;;;;4950864;29;20038;-83
2023/07/11 06:00:09;;;;;;;7.35;3.30;;;27.40;72.30;;;;;;4950576;28;20042;-83
2023/07/11 06:02:36;;;;;;;5.05;3.25;;;27.70;71.40;;;;;;4950418;28;20778;-82
2023/07/11 06:05:02;;;;;;;6.18;3.30;;;28.30;69.20;;;;;;4950569;28;20027;-82
2023/07/11 06:07:28;;;;;;;3.45;2.58;;;29.20;66.90;;;;;;4951829;28;20042;-83
2023/07/11 06:09:55;;;;;;;7.15;3.35;;;30.30;63.50;;;;;;4950447;28;20028;-84
2023/07/11 06:12:24;;;;;;;9.55;3.17;;;31.30;60.20;;;;;;4950174;29;20027;-83
2023/07/11 06:14:51;;;;;;;6.85;2.97;;;32.00;56.60;;;;;;4951346;29;20035;-83
2023/07/11 06:17:16;;;;;;;6.05;3.13;;;32.50;54.00;;;;;;4950166;28;20042;-81
2023/07/11 06:19:42;;;;;;;4.25;3.15;;;33.30;53.00;;;;;;4950533;28;20031;-82
2023/07/11 06:22:07;;;;;;;5.30;3.38;;;34.00;49.90;;;;;;4950298;28;20526;-81
2023/07/11 06:24:33;;;;;;;8.52;3.92;;;34.40;48.90;;;;;;4949766;28;20027;-81
2023/07/11 06:26:59;;;;;;;6.40;3.38;;;34.90;45.60;;;;;;4949997;28;20035;-80
2023/07/11 06:29:28;;;;;;;6.03;3.55;;;35.30;45.30;;;;;;4949436;28;20027;-82
2023/07/11 06:31:54;;;;;;;4.78;3.17;;;35.20;43.70;;;;;;4950825;28;20385;-80
2023/07/11 06:34:19;;;;;;;7.03;3.97;;;35.80;42.70;;;;;;4949627;28;20485;-82
2023/07/11 06:36:45;;;;;;;6.95;3.33;;;36.00;42.40;;;;;;4951199;28;20030;-81
2023/07/11 06:39:11;;;;;;;9.38;3.92;;;36.00;42.10;;;;;;4984496;28;20051;-82
2023/07/11 06:41:38;;;;;;;5.95;3.72;;;36.30;41.90;;;;;;4989626;28;20038;-80
2023/07/11 06:44:08;;;;;;;6.35;3.13;;;36.00;39.60;;;;;;4989521;28;20164;-82
2023/07/11 06:46:37;;;;;;;6.03;3.90;;;35.90;40.40;;;;;;4989857;28;20042;-82
2023/07/11 06:49:03;;;;;;;9.20;3.55;;;35.90;41.20;;;;;;4971678;28;20076;-80
2023/07/11 06:51:29;;;;;;;5.00;3.70;;;35.80;40.80;;;;;;4971974;28;20026;-81
2023/07/11 06:53:55;;;;;;;6.20;4.22;;;35.90;41.30;;;;;;4971525;28;20062;-81
2023/07/11 06:56:22;;;;;;;6.00;3.95;;;36.10;40.40;;;;;;4970484;28;20107;-80
2023/07/11 06:58:49;;;;;;;5.03;4.03;;;36.60;38.30;;;;;;4988920;28;20030;-82
2023/07/11 07:01:21;;;;;;;7.75;4.25;;;36.70;39.10;;;;;;4971369;28;20105;-82
2023/07/11 07:03:47;;;;;;;5.15;3.55;;;36.50;38.20;;;;;;4972287;28;20456;-80
2023/07/11 07:06:14;;;;;;;7.82;3.70;;;36.60;38.20;;;;;;4988937;28;20117;-82
2023/07/11 07:08:40;;;;;;;11.32;4.25;;;36.50;38.30;;;;;;4989326;28;20027;-81
2023/07/11 07:11:06;;;;;;;5.50;3.88;;;36.60;38.10;;;;;;4989268;28;20041;-81
2023/07/11 07:13:32;;;;;;;4.38;3.55;;;36.00;37.60;;;;;;4971476;28;20113;-81
2023/07/11 07:15:59;;;;;;;6.20;3.63;;;36.00;39.00;;;;;;4971234;28;20058;-81
2023/07/11 07:18:27;;;;;;;6.28;3.58;;;36.10;39.20;;;;;;4971135;28;20023;-80
2023/07/11 07:20:53;;;;;;;9.77;3.92;;;36.00;37.60;;;;;;4971197;28;20039;-81
2023/07/11 07:23:19;;;;;;;9.65;3.88;;;35.80;37.30;;;;;;4971289;28;20034;-81
2023/07/11 07:25:57;;;;;;;4.78;3.33;;;35.50;39.30;;;;;;4988860;28;20103;-82
2023/07/11 07:28:23;;;;;;;4.07;3.63;;;34.80;40.20;;;;;;4971357;28;20044;-81
2023/07/11 07:30:52;;;;;;;5.95;3.90;;;34.70;40.30;;;;;;4970965;28;20053;-81
2023/07/11 07:33:18;;;;;;;6.57;4.45;;;34.70;39.50;;;;;;4970769;28;20038;-81
2023/07/11 07:35:43;;;;;;;5.50;3.80;;;34.50;38.50;;;;;;4970938;28;20026;-81
2023/07/11 07:38:10;;;;;;;5.32;4.40;;;34.40;39.80;;;;;;4958767;28;20055;-81
2023/07/11 07:40:36;;;;;;;8.52;4.00;;;34.90;38.30;;;;;;4948818;28;20403;-82
2023/07/11 07:43:02;;;;;;;5.30;4.30;;;35.30;37.60;;;;;;4948778;29;20031;-81
2023/07/11 07:45:28;;;;;;;7.95;4.32;;;35.30;37.50;;;;;;4948440;28;20488;-83
2023/07/11 07:47:53;;;;;;;7.50;4.70;;;35.20;37.10;;;;;;4948205;28;20030;-81
2023/07/11 07:50:19;;;;;;;5.82;3.53;;;35.10;38.20;;;;;;4950053;28;20037;-82
2023/07/11 07:52:46;;;;;;;5.22;4.22;;;35.00;37.10;;;;;;4949618;28;20085;-82
2023/07/11 07:55:11;;;;;;;4.55;3.72;;;34.80;38.10;;;;;;4948261;28;20081;-82
2023/07/11 07:57:37;;;;;;;5.25;3.65;;;34.80;38.20;;;;;;4948489;29;20031;-82
2023/07/11 08:00:04;;;;;;;6.13;4.30;;;34.60;38.60;;;;;;4949627;29;20035;-82
2023/07/11 08:02:35;;;;;;;8.05;4.00;;;34.50;38.60;;;;;;4948251;28;20027;-82
2023/07/11 08:05:02;;;;;;;6.55;4.25;;;34.70;38.20;;;;;;4947993;29;20059;-81
2023/07/11 08:07:27;;;;;;;8.75;4.95;;;34.40;37.90;;;;;;4947730;28;20031;-83
2023/07/11 08:09:55;;;;;;;6.55;4.68;;;34.40;38.90;;;;;;4947350;29;20039;-80
2023/07/11 08:12:21;;;;;;;6.53;4.22;;;34.30;38.80;;;;;;4947941;29;20412;-81
2023/07/11 08:14:47;;;;;;;6.18;4.32;;;34.50;39.10;;;;;;4949453;28;20514;-81
2023/07/11 08:17:12;;;;;;;5.32;4.03;;;34.80;38.70;;;;;;4947966;29;20035;-84
2023/07/11 08:19:38;;;;;;;7.55;4.80;;;34.90;39.30;;;;;;4949689;28;20054;-83
2023/07/11 08:22:05;;;;;;;5.78;4.53;;;35.00;38.20;;;;;;4948386;29;20062;-80
2023/07/11 08:24:31;;;;;;;5.30;4.20;;;35.10;38.20;;;;;;4948011;28;20062;-80
2023/07/11 08:26:56;;;;;;;5.50;4.18;;;35.30;38.00;;;;;;4949578;29;20082;-81
2023/07/11 08:29:22;;;;;;;8.20;4.25;;;35.40;38.30;;;;;;4948129;28;20020;-81
2023/07/11 08:31:48;;;;;;;11.43;4.18;;;35.80;37.90;;;;;;4947936;28;20038;-81
2023/07/11 08:34:13;;;;;;;7.18;3.97;;;36.00;37.80;;;;;;4949153;29;20080;-81
2023/07/11 08:36:39;;;;;;;5.85;3.75;;;36.10;38.60;;;;;;4949194;29;20031;-81
2023/07/11 08:39:06;;;;;;;7.80;3.83;;;36.50;38.30;;;;;;4981192;28;20051;-82
2023/07/11 08:41:48;;;;;;;6.05;4.40;;;36.80;37.00;;;;;;4987900;28;20395;-81
2023/07/11 08:44:39;;;;;;;11.52;3.85;;;37.00;37.10;;;;;;4987640;28;20533;-81
2023/07/11 08:47:20;;;;;;;6.78;4.15;;;36.80;35.70;;;;;;5002585;28;20038;-82
2023/07/11 08:49:52;;;;;;;7.70;4.60;;;36.40;36.20;;;;;;4987780;28;20125;-81
2023/07/11 08:52:20;;;;;;;9.23;4.90;;;36.40;37.80;;;;;;4987698;28;20026;-82
2023/07/11 08:54:56;;;;;;;6.90;4.38;;;36.50;38.60;;;;;;4970142;28;20403;-80
2023/07/11 08:57:23;;;;;;;6.60;4.18;;;36.60;37.50;;;;;;4970347;28;20080;-81
2023/07/11 09:00:12;;;;;;;6.00;4.53;;;36.60;36.90;;;;;;4987268;28;20019;-81
2023/07/11 09:02:59;;;;;;;7.05;4.00;;;36.60;37.60;;;;;;4987415;28;20454;-81
2023/07/11 09:05:42;;;;;;;6.32;4.05;;;36.60;37.60;;;;;;4969872;28;20046;-82
2023/07/11 09:08:15;;;;;;;5.18;4.05;;;36.30;39.00;;;;;;4969586;28;20026;-81
2023/07/11 09:10:50;;;;;;;6.55;4.63;;;36.10;39.40;;;;;;4970081;28;20164;-82
2023/07/11 09:13:43;;;;;;;7.43;3.70;;;36.40;39.70;;;;;;4969879;28;20091;-82
2023/07/11 09:16:42;;;;;;;6.45;4.00;;;36.80;40.30;;;;;;4970019;28;20125;-82
2023/07/11 09:19:48;;;;;;;8.90;4.55;;;37.00;39.40;;;;;;4987711;28;20022;-81
2023/07/11 09:22:31;;;;;;;8.02;3.95;;;37.10;39.30;;;;;;4983786;28;20057;-81
2023/07/11 09:25:22;;;;;;;8.80;4.38;;;37.00;40.10;;;;;;4973096;28;20034;-81
2023/07/11 09:27:59;;;;;;;7.07;4.25;;;36.70;38.40;;;;;;4990724;28;20756;-81
2023/07/11 09:30:41;;;;;;;5.88;4.32;;;36.50;38.90;;;;;;4973116;28;20076;-82
2023/07/11 09:33:25;;;;;;;5.05;3.75;;;36.50;39.60;;;;;;4972847;28;20121;-82
2023/07/11 09:35:52;;;;;;;8.37;4.23;;;36.80;39.80;;;;;;4973255;28;20034;-81
2023/07/11 09:38:25;;;;;;;14.40;4.40;;;36.50;40.30;;;;;;4972748;28;20081;-82
2023/07/11 09:41:03;;;;;;;9.73;4.03;;;36.50;40.90;;;;;;4990402;28;20062;-81
2023/07/11 09:43:29;;;;;;;8.13;4.28;;;36.60;41.40;;;;;;4990232;28;20022;-81
2023/07/11 09:45:55;;;;;;;7.97;4.20;;;36.80;40.80;;;;;;4972670;28;20803;-81
2023/07/11 09:48:28;;;;;;;13.23;4.97;;;36.80;41.10;;;;;;4972844;28;20033;-82
2023/07/11 09:51:00;;;;;;;7.55;3.92;;;37.20;40.90;;;;;;4972282;28;20031;-80
2023/07/11 09:53:28;;;;;;;8.57;3.80;;;37.50;40.80;;;;;;4972672;28;20122;-82
2023/07/11 09:55:57;;;;;;;6.32;3.60;;;37.30;40.60;;;;;;4989938;28;20080;-81
2023/07/11 09:58:22;;;;;;;5.18;3.97;;;37.40;39.60;;;;;;4989879;28;20022;-80
2023/07/11 10:00:51;;;;;;;6.80;4.20;;;37.40;40.50;;;;;;4989967;28;20026;-81
2023/07/11 10:03:25;;;;;;;6.22;3.72;;;37.50;40.60;;;;;;4972506;28;20022;-81
2023/07/11 10:05:52;;;;;;;5.85;3.90;;;37.20;40.10;;;;;;4972427;28;20125;-81
2023/07/11 10:08:26;;;;;;;12.80;3.88;;;36.30;40.40;;;;;;4972600;28;20038;-82
2023/07/11 10:10:54;;;;;;;6.00;4.13;;;35.70;41.30;;;;;;4972672;28;20031;-79
2023/07/11 10:13:22;;;;;;;7.93;3.95;;;35.00;42.00;;;;;;4972385;28;20023;-81
2023/07/11 10:15:52;;;;;;;4.63;3.75;;;34.40;43.30;;;;;;4972504;28;20026;-81
2023/07/11 10:18:30;;;;;;;7.60;3.95;;;34.20;45.10;;;;;;4971958;28;20019;-81
2023/07/11 10:21:10;;;;;;;8.00;3.83;;;34.00;44.80;;;;;;4972279;28;20041;-81
2023/07/11 10:23:36;;;;;;;5.85;4.00;;;34.00;45.10;;;;;;4989510;28;20039;-80
2023/07/11 10:26:22;;;;;;;5.00;3.85;;;33.90;44.40;;;;;;4971723;28;20460;-81
2023/07/11 10:29:14;;;;;;;6.18;4.47;;;33.80;43.60;;;;;;4972477;28;20030;-81
2023/07/11 10:31:56;;;;;;;8.13;4.63;;;33.60;44.00;;;;;;4973650;28;20037;-82
2023/07/11 10:34:35;;;;;;;9.13;4.05;;;33.50;44.10;;;;;;4972178;28;20398;-81
2023/07/11 10:37:12;;;;;;;6.00;3.67;;;33.50;44.30;;;;;;4972492;28;20039;-81
2023/07/11 10:39:51;;;;;;;7.30;4.22;;;33.60;46.00;;;;;;4971673;28;20551;-80
2023/07/11 10:42:40;;;;;;;6.70;4.03;;;33.60;40.80;;;;;;4971568;28;20442;-82
2023/07/11 10:45:20;;;;;;;5.30;4.03;;;33.50;40.70;;;;;;4971705;28;20043;-81
2023/07/11 10:48:15;;;;;;;5.13;4.10;;;33.40;39.30;;;;;;4971325;28;20406;-81
2023/07/11 10:50:55;;;;;;;6.75;4.63;;;33.20;39.00;;;;;;4989049;28;20056;-80
2023/07/11 10:53:28;;;;;;;6.93;2.95;;;33.00;40.20;;;;;;4971275;28;20054;-80
2023/07/11 10:56:26;;;;;;;4.70;3.65;;;33.00;40.60;;;;;;4971829;28;20551;-81
2023/07/11 10:58:54;;;;;;;4.95;3.40;;;33.00;40.90;;;;;;4971320;28;20491;-82
2023/07/11 11:01:23;;;;;;;7.35;3.97;;;32.70;39.60;;;;;;4988790;28;20524;-81
2023/07/11 11:03:57;;;;;;;4.93;3.55;;;32.60;41.70;;;;;;4971414;28;20034;-81
2023/07/11 11:06:44;;;;;;;5.82;3.53;;;32.50;40.80;;;;;;4988771;28;20039;-82
2023/07/11 11:09:35;;;;;;;7.35;3.13;;;32.50;40.70;;;;;;4971256;28;20076;-81
2023/07/11 11:12:52;;;;;;;5.15;3.20;;;32.60;40.60;;;;;;4971288;28;20117;-81
2023/07/11 11:15:59;;;;;;;5.13;2.90;;;32.50;40.10;;;;;;5006259;28;20517;-81
2023/07/11 11:18:34;;;;;;;4.15;3.08;;;32.40;36.60;;;;;;4973448;28;20030;-82
2023/07/11 11:21:27;;;;;;;5.70;3.10;;;32.30;37.90;;;;;;4989230;28;20052;-82
2023/07/11 11:24:39;;;;;;;6.45;2.97;;;32.20;37.60;;;;;;4988598;28;20037;-82
2023/07/11 11:27:04;;;;;;;5.18;3.05;;;32.00;37.90;;;;;;4988512;28;20046;-82
2023/07/11 11:29:33;;;;;;;6.35;2.60;;;32.00;37.60;;;;;;4988601;28;20030;-83
2023/07/11 11:32:02;;;;;;;7.32;2.92;;;32.00;39.20;;;;;;4988311;28;20491;-81
2023/07/11 11:34:46;;;;;;;5.13;2.35;;;32.10;39.00;;;;;;4988075;28;20026;-82
2023/07/11 11:37:26;;;;;;;5.57;3.00;;;32.10;37.50;;;;;;4970754;28;20372;-81
2023/07/11 11:40:10;;;;;;;6.13;3.05;;;32.10;38.50;;;;;;4971016;28;20050;-82
2023/07/11 11:42:40;;;;;;;6.40;3.20;;;32.10;38.50;;;;;;4970603;28;20026;-82
2023/07/11 11:45:10;;;;;;;8.88;3.17;;;32.10;38.50;;;;;;4988194;28;20030;-82
2023/07/11 11:47:38;;;;;;;5.70;3.45;;;32.10;39.00;;;;;;4971061;28;20038;-82
2023/07/11 11:50:06;;;;;;;5.00;3.55;;;32.00;39.40;;;;;;4988233;28;20054;-82
2023/07/11 11:52:33;;;;;;;4.55;2.85;;;32.10;39.60;;;;;;4988121;28;20037;-81
2023/07/11 11:54:59;;;;;;;7.60;3.72;;;32.00;39.50;;;;;;4970558;28;20054;-83
2023/07/11 11:57:29;;;;;;;4.28;3.10;;;32.00;39.00;;;;;;4987655;28;20018;-82
2023/07/11 11:59:55;;;;;;;5.25;3.17;;;31.90;39.40;;;;;;4970514;28;20121;-84
2023/07/11 12:02:31;;;;;;;3.72;2.83;;;31.90;39.80;;;;;;4987630;28;20018;-82
2023/07/11 12:05:08;;;;;;;6.82;3.60;;;32.00;40.50;;;;;;4970249;28;20156;-81
2023/07/11 12:07:37;;;;;;;5.70;3.08;;;32.00;39.60;;;;;;4970353;28;20287;-83
2023/07/11 12:10:10;;;;;;;5.97;3.03;;;32.00;40.20;;;;;;4970518;28;20022;-81
2023/07/11 12:12:36;;;;;;;4.47;3.10;;;31.90;40.00;;;;;;4987914;28;20659;-81
2023/07/11 12:15:38;;;;;;;4.05;3.00;;;31.90;40.20;;;;;;4970329;28;20083;-82
2023/07/11 12:18:25;;;;;;;5.15;2.75;;;32.00;39.00;;;;;;4970270;28;20034;-82
2023/07/11 12:21:16;;;;;;;3.20;2.28;;;32.00;39.70;;;;;;4987500;28;20105;-83
2023/07/11 12:23:50;;;;;;;3.40;2.58;;;31.90;38.10;;;;;;4987687;28;20023;-82
2023/07/11 12:26:25;;;;;;;5.43;2.55;;;31.80;37.90;;;;;;4987470;28;20060;-82
2023/07/11 12:28:52;;;;;;;6.15;2.88;;;31.80;38.60;;;;;;4970253;28;20023;-81
2023/07/11 12:31:25;;;;;;;8.15;2.35;;;31.90;38.30;;;;;;4970140;28;20030;-81
2023/07/11 12:34:12;;;;;;;6.93;2.70;;;31.80;39.20;;;;;;4969980;28;20030;-82
2023/07/11 12:37:13;;;;;;;5.25;2.83;;;31.90;38.20;;;;;;4970125;28;20125;-81
2023/07/11 12:40:11;;;;;;;7.97;2.47;;;31.90;39.40;;;;;;5007427;28;20495;-82
2023/07/11 12:42:51;;;;;;;2.72;2.03;;;32.00;38.40;;;;;;4969763;28;20046;-82
2023/07/11 12:45:22;;;;;;;3.20;2.22;;;32.00;37.60;;;;;;4969916;28;20041;-82
2023/07/11 12:47:56;;;;;;;4.43;2.22;;;32.00;37.70;;;;;;4970014;28;20477;-81
2023/07/11 12:50:36;;;;;;;4.82;2.13;;;31.90;36.80;;;;;;4969951;28;20030;-82
2023/07/11 12:53:03;;;;;;;5.43;2.45;;;31.80;35.40;;;;;;4970110;28;20026;-82
2023/07/11 12:55:30;;;;;;;3.00;1.52;;;31.70;36.00;;;;;;4969354;28;20029;-82
2023/07/11 12:57:57;;;;;;;4.20;2.10;;;31.80;36.40;;;;;;4987747;28;20121;-83
2023/07/11 13:00:26;;;;;;;2.75;2.13;;;31.80;36.30;;;;;;4987473;28;20386;-83
2023/07/11 13:02:58;;;;;;;3.15;1.80;;;31.80;35.70;;;;;;4987366;28;20042;-83